createdAt,value
2023-01-03T00:02:58.243Z,1.50
2023-01-03T00:08:06.270Z,1.20
2023-01-03T00:13:14.209Z,0.80
2023-01-03T00:18:22.058Z,1.00
2023-01-03T00:23:30.039Z,0.70
2023-01-03T00:28:37.508Z,0.80
2023-01-03T00:33:45.402Z,0.60
2023-01-03T00:38:52.929Z,0.70
2023-01-03T00:44:00.951Z,0.60
2023-01-03T00:49:08.852Z,0.70
2023-01-03T00:54:17.837Z,0.80
2023-01-03T00:59:25.740Z,0.90
2023-01-03T01:04:34.827Z,0.70
2023-01-03T01:09:42.507Z,0.70
2023-01-03T01:14:50.466Z,1.60
2023-01-03T01:19:58.369Z,0.60
2023-01-03T01:25:06.583Z,0.70
2023-01-03T01:30:15.327Z,0.60
2023-01-03T01:35:22.855Z,1.30
2023-01-03T01:40:33.381Z,1.10
2023-01-03T01:45:42.354Z,0.60
2023-01-03T01:50:53.436Z,1.10
2023-01-03T01:56:08.685Z,0.90
2023-01-03T02:01:19.442Z,0.70
2023-01-03T02:06:27.269Z,0.90
2023-01-03T02:11:46.802Z,0.90
2023-01-03T02:17:01.525Z,0.90
2023-01-03T02:22:50.389Z,1.00
2023-01-03T02:28:54.307Z,1.10
2023-01-03T02:34:07.260Z,1.30
2023-01-03T02:39:23.913Z,1.40
2023-01-03T02:44:38.106Z,1.00
2023-01-03T02:49:49.840Z,1.00
2023-01-03T02:55:00.457Z,1.10
2023-01-03T03:00:12.177Z,1.00
2023-01-03T03:05:27.607Z,1.10
2023-01-03T03:10:54.294Z,1.10
2023-01-03T03:16:08.174Z,1.20
2023-01-03T03:21:36.447Z,1.40
2023-01-03T03:26:46.786Z,1.00
2023-01-03T03:31:57.113Z,1.10
2023-01-03T03:37:09.316Z,1.30
2023-01-03T03:47:55.653Z,1.00
2023-01-03T03:53:07.064Z,0.90
2023-01-03T03:58:20.754Z,1.10
2023-01-03T04:03:31.321Z,1.00
2023-01-03T04:08:39.508Z,1.10
2023-01-03T04:13:47.423Z,1.00
2023-01-03T04:18:55.436Z,1.00
2023-01-03T04:24:03.919Z,0.70
2023-01-03T04:29:11.814Z,0.50
2023-01-03T04:34:19.899Z,0.70
2023-01-03T04:39:28.234Z,0.80
2023-01-03T04:44:35.867Z,0.60
2023-01-03T04:49:45.724Z,1.00
2023-01-03T04:54:53.684Z,0.80
2023-01-03T05:00:01.665Z,0.90
2023-01-03T05:05:11.362Z,2.20
2023-01-03T05:10:19.667Z,0.70
2023-01-03T05:15:28.126Z,1.00
2023-01-03T05:20:57.550Z,0.60
2023-01-03T05:26:09.603Z,1.00
2023-01-03T05:31:17.935Z,0.80
2023-01-03T05:36:26.143Z,0.90
2023-01-03T05:41:51.862Z,0.80
2023-01-03T05:47:00.189Z,1.00
2023-01-03T05:52:08.714Z,0.60
2023-01-03T05:57:16.612Z,1.00
2023-01-03T06:02:25.369Z,1.00
2023-01-03T06:07:34.670Z,1.00
2023-01-03T06:12:42.826Z,1.10
2023-01-03T06:17:58.413Z,0.80
2023-01-03T06:23:06.865Z,0.90
2023-01-03T06:28:15.426Z,1.00
2023-01-03T06:33:23.689Z,0.80
2023-01-03T06:38:35.286Z,0.80
2023-01-03T06:43:43.660Z,0.80
2023-01-03T06:49:10.133Z,1.00
2023-01-03T06:54:24.242Z,0.80
2023-01-03T06:59:32.608Z,1.00
2023-01-03T07:04:41.572Z,1.00
2023-01-03T07:09:49.700Z,0.90
2023-01-03T07:14:58.149Z,0.80
2023-01-03T07:20:06.348Z,1.10
2023-01-03T07:25:14.922Z,1.00
2023-01-03T07:30:23.760Z,0.80
2023-01-03T07:35:32.778Z,1.00
2023-01-03T07:40:41.819Z,1.20
2023-01-03T07:45:50.774Z,0.90
2023-01-03T07:51:02.205Z,0.80
2023-01-03T07:56:13.731Z,1.00
2023-01-03T08:01:24.123Z,1.00
2023-01-03T08:06:34.758Z,0.80
2023-01-03T08:12:01.897Z,0.80
2023-01-03T08:17:10.309Z,0.60
2023-01-03T08:22:18.312Z,0.70
2023-01-03T08:27:26.704Z,0.70
2023-01-03T08:32:36.570Z,0.80
2023-01-03T08:37:44.919Z,0.80
2023-01-03T08:42:53.308Z,1.00
2023-01-03T08:48:03.425Z,1.00
2023-01-03T08:53:11.721Z,0.80
2023-01-03T08:58:20.148Z,0.70
2023-01-03T09:03:27.854Z,0.80
2023-01-03T09:08:36.350Z,0.80
2023-01-03T09:13:44.681Z,0.80
2023-01-03T09:18:53.727Z,1.00
2023-01-03T09:24:02.179Z,1.00
2023-01-03T09:29:11.331Z,0.90
2023-01-03T09:34:19.766Z,1.00
2023-01-03T09:39:28.046Z,0.80
2023-01-03T09:44:36.174Z,0.90
2023-01-03T09:50:18.295Z,0.90
2023-01-03T09:55:45.000Z,0.70
2023-01-03T10:01:14.717Z,0.60
2023-01-03T10:06:37.906Z,0.90
2023-01-03T10:11:56.591Z,0.60
2023-01-03T10:17:14.450Z,0.60
2023-01-03T10:22:26.027Z,0.50
2023-01-03T10:27:36.806Z,0.70
2023-01-03T10:33:05.453Z,0.80
2023-01-03T10:38:16.819Z,0.70
2023-01-03T10:43:32.258Z,0.80
2023-01-03T10:49:25.331Z,0.70
2023-01-03T10:54:27.006Z,0.70
2023-01-03T10:59:37.714Z,0.50
2023-01-03T11:04:47.547Z,0.70
2023-01-03T11:09:57.884Z,0.80
2023-01-03T11:15:17.141Z,0.90
2023-01-03T11:20:35.948Z,0.80
2023-01-03T11:25:52.009Z,0.80
2023-01-03T11:31:07.446Z,0.80
2023-01-03T11:36:34.648Z,0.90
2023-01-03T11:42:08.669Z,0.90
2023-01-03T11:47:31.421Z,0.90
2023-01-03T11:52:47.557Z,0.70
2023-01-03T11:58:06.303Z,0.70
2023-01-03T12:03:24.693Z,0.80
2023-01-03T12:08:58.947Z,0.70
2023-01-03T12:14:15.972Z,0.60
2023-01-03T12:19:33.888Z,0.80
2023-01-03T12:24:45.847Z,0.80
2023-01-03T12:29:59.691Z,0.70
2023-01-03T12:35:30.061Z,0.90
2023-01-03T12:40:47.973Z,1.10
2023-01-03T12:46:06.998Z,0.90
2023-01-03T12:51:22.843Z,0.80
2023-01-03T12:57:05.759Z,1.10
2023-01-03T13:02:24.239Z,0.80
2023-01-03T13:07:36.236Z,1.00
2023-01-03T13:12:51.375Z,0.90
2023-01-03T13:18:31.317Z,0.90
2023-01-03T13:24:02.007Z,1.00
2023-01-03T13:29:46.160Z,1.10
2023-01-03T13:35:33.436Z,1.10
2023-01-03T13:41:16.559Z,0.60
2023-01-03T13:46:28.233Z,0.80
2023-01-03T13:51:51.140Z,1.00
2023-01-03T13:57:05.394Z,0.90
2023-01-03T14:02:46.735Z,1.20
2023-01-03T14:08:35.166Z,0.80
2023-01-03T14:13:49.115Z,1.20
2023-01-03T14:19:05.842Z,1.10
2023-01-03T14:24:22.777Z,1.30
2023-01-03T14:29:32.695Z,1.20
2023-01-03T14:34:44.299Z,1.20
2023-01-03T14:39:59.612Z,1.40
2023-01-03T14:45:09.544Z,1.30
2023-01-03T14:50:23.175Z,1.60
2023-01-03T14:55:33.467Z,1.10
2023-01-03T15:00:43.854Z,1.50
2023-01-03T15:06:00.786Z,1.70
2023-01-03T15:11:11.280Z,1.70
2023-01-03T15:16:32.234Z,1.80
2023-01-03T15:21:41.963Z,1.20
2023-01-03T15:26:52.569Z,1.30
2023-01-03T15:32:03.835Z,1.20
2023-01-03T15:37:22.436Z,1.30
2023-01-03T15:42:57.972Z,1.30
2023-01-03T15:48:14.184Z,1.40
2023-01-03T15:53:31.494Z,1.40
2023-01-03T15:58:40.038Z,1.60
2023-01-03T16:03:49.795Z,1.90
2023-01-03T16:08:58.057Z,1.50
2023-01-03T16:14:08.660Z,1.80
2023-01-03T16:19:21.981Z,1.90
2023-01-03T16:24:30.443Z,2.00
2023-01-03T16:29:38.816Z,1.80
2023-01-03T16:34:46.817Z,2.10
2023-01-03T16:39:55.710Z,1.60
2023-01-03T16:45:01.359Z,1.60
2023-01-03T16:50:15.097Z,2.00
2023-01-03T16:55:28.865Z,1.60
2023-01-03T17:00:38.933Z,2.30
2023-01-03T17:05:48.186Z,2.20
2023-01-03T17:10:59.348Z,1.60
2023-01-03T17:16:09.256Z,1.80
2023-01-03T17:21:24.449Z,1.60
2023-01-03T17:26:35.912Z,1.60
2023-01-03T17:31:45.006Z,1.70
2023-01-03T17:36:53.662Z,1.30
2023-01-03T17:42:17.074Z,1.30
2023-01-03T17:47:44.374Z,1.70
2023-01-03T17:52:56.034Z,1.80
2023-01-03T18:03:13.157Z,2.00
2023-01-03T18:08:24.790Z,1.60
2023-01-03T18:13:37.194Z,1.80
2023-01-03T18:18:44.684Z,1.60
2023-01-03T18:23:57.250Z,1.90
2023-01-03T18:29:09.767Z,2.20
2023-01-03T18:34:18.348Z,2.10
2023-01-03T18:39:31.035Z,1.50
2023-01-03T18:44:39.083Z,1.40
2023-01-03T18:49:47.409Z,1.60
2023-01-03T18:54:56.086Z,2.40
2023-01-03T19:00:03.749Z,2.30
2023-01-03T19:05:12.797Z,1.60
2023-01-03T19:10:24.390Z,1.70
2023-01-03T19:15:33.266Z,2.10
2023-01-03T19:20:42.502Z,1.60
2023-01-03T19:25:51.591Z,1.80
2023-01-03T19:30:59.889Z,2.60
2023-01-03T19:36:17.177Z,1.90
2023-01-03T19:41:24.841Z,1.70
2023-01-03T19:46:33.612Z,1.60
2023-01-03T19:51:41.226Z,1.70
2023-01-03T19:56:51.486Z,1.70
2023-01-03T20:02:24.752Z,1.70
2023-01-03T20:07:27.738Z,1.70
2023-01-03T20:12:36.742Z,1.10
2023-01-03T20:17:45.312Z,1.40
2023-01-03T20:23:05.150Z,1.00
2023-01-03T20:28:21.090Z,1.10
2023-01-03T20:33:29.940Z,0.80
2023-01-03T20:38:38.542Z,1.00
2023-01-03T20:43:47.865Z,1.00
2023-01-03T20:49:01.809Z,1.40
2023-01-03T20:54:10.544Z,0.90
2023-01-03T20:59:22.406Z,0.80
2023-01-03T21:04:30.765Z,1.00
2023-01-03T21:09:38.941Z,0.80
2023-01-03T21:14:50.116Z,1.00
2023-01-03T21:19:58.472Z,1.30
2023-01-03T21:25:08.624Z,1.40
2023-01-03T21:30:17.379Z,1.50
2023-01-03T21:35:26.634Z,1.70
2023-01-03T21:40:34.968Z,1.80
2023-01-03T21:45:46.365Z,1.90
2023-01-03T21:50:53.827Z,2.20
2023-01-03T21:56:01.342Z,2.10
2023-01-03T22:01:18.233Z,2.40
2023-01-03T22:06:27.670Z,2.30
2023-01-03T22:11:35.649Z,2.50
2023-01-03T22:16:44.225Z,2.60
2023-01-03T22:21:52.722Z,2.20
2023-01-03T22:27:01.171Z,2.60
2023-01-03T22:32:10.518Z,2.40
2023-01-03T22:37:19.536Z,2.00
2023-01-03T22:42:26.932Z,2.10
2023-01-03T22:47:36.595Z,2.10
2023-01-03T22:52:44.022Z,2.10
2023-01-03T22:57:51.442Z,2.10
2023-01-03T23:02:59.901Z,1.80
2023-01-03T23:08:08.543Z,1.50
2023-01-03T23:13:17.151Z,1.70
2023-01-03T23:18:25.503Z,1.90
2023-01-03T23:23:32.886Z,2.70
2023-01-03T23:28:41.228Z,2.40
2023-01-03T23:33:49.677Z,2.60
2023-01-03T23:38:58.334Z,2.50
2023-01-03T23:44:07.152Z,3.30
2023-01-03T23:49:16.642Z,3.40
2023-01-03T23:54:25.335Z,3.00
2023-01-03T23:59:33.862Z,3.10
